Time;durP1;ratioP1;P1;durP2;ratioP2;P2;SDS_P1;SDS_P2;PMS_P1;PMS_P2;Temp;Humidity;BMP_temperature;BMP_pressure;BME280_temperature;BME280_humidity;BME280_pressure;Samples;Min_cycle;Max_cycle;Signal;HPM_P1;HPM_P2
2022/04/10 00:01:49;;;;;;;10.93;8.10;;;3.10;99.90;;;;;;4991836;28;20144;-77
2022/04/10 00:04:17;;;;;;;11.27;7.68;;;3.10;99.90;;;;;;4992120;28;20112;-76
2022/04/10 00:06:44;;;;;;;10.90;8.23;;;3.10;99.90;;;;;;4973494;28;20050;-77
2022/04/10 00:09:13;;;;;;;13.68;9.25;;;3.10;99.90;;;;;;4970625;28;20415;-77
2022/04/10 00:11:41;;;;;;;17.92;11.00;;;3.10;99.90;;;;;;4954310;28;20141;-77
2022/04/10 00:14:10;;;;;;;16.02;11.82;;;3.10;99.90;;;;;;4971166;28;20430;-77
2022/04/10 00:16:37;;;;;;;15.55;10.68;;;3.10;99.90;;;;;;4978059;28;20422;-77
2022/04/10 00:19:05;;;;;;;14.98;11.10;;;3.10;99.90;;;;;;4991667;28;20046;-77
2022/04/10 00:21:33;;;;;;;14.00;9.93;;;3.10;99.90;;;;;;4991280;28;20520;-77
2022/04/10 00:24:01;;;;;;;18.38;10.85;;;3.10;99.90;;;;;;4991588;28;20089;-76
2022/04/10 00:26:28;;;;;;;15.10;10.63;;;3.00;99.90;;;;;;4970081;28;20054;-76
2022/04/10 00:28:58;;;;;;;16.00;12.20;;;2.90;99.90;;;;;;4979493;28;20573;-76
2022/04/10 00:31:28;;;;;;;19.23;11.75;;;2.80;99.90;;;;;;4974096;28;20042;-76
2022/04/10 00:33:55;;;;;;;22.08;13.18;;;2.80;99.90;;;;;;4972855;28;20050;-76
2022/04/10 00:36:23;;;;;;;19.25;11.82;;;2.80;99.90;;;;;;4957587;28;20049;-76
2022/04/10 00:38:50;;;;;;;19.88;12.18;;;2.80;99.90;;;;;;4958113;28;20054;-76
2022/04/10 00:41:18;;;;;;;21.00;12.80;;;2.80;99.90;;;;;;4973086;28;20318;-76
2022/04/10 00:44:08;;;;;;;19.08;12.90;;;2.90;99.90;;;;;;4994202;28;20061;-76
2022/04/10 00:46:38;;;;;;;16.63;12.27;;;2.90;99.90;;;;;;4991347;28;20414;-76
2022/04/10 00:49:06;;;;;;;19.98;13.25;;;2.90;99.90;;;;;;4990077;28;20061;-76
2022/04/10 00:51:41;;;;;;;21.23;12.90;;;2.90;99.90;;;;;;4957625;28;20053;-76
2022/04/10 00:54:15;;;;;;;20.13;12.63;;;2.90;99.90;;;;;;4953728;28;20051;-77
2022/04/10 00:56:43;;;;;;;15.05;10.20;;;2.90;99.90;;;;;;4980748;28;20426;-77
2022/04/10 00:59:10;;;;;;;11.43;9.50;;;2.90;99.90;;;;;;4990120;28;20147;-77
2022/04/10 01:01:44;;;;;;;13.05;9.45;;;2.90;99.90;;;;;;4972185;28;20058;-77
2022/04/10 01:04:12;;;;;;;13.35;9.35;;;2.80;99.90;;;;;;4973504;28;20120;-77
2022/04/10 01:06:41;;;;;;;11.77;8.50;;;2.80;99.90;;;;;;4973672;28;20055;-76
2022/04/10 01:09:09;;;;;;;10.45;8.27;;;2.80;99.90;;;;;;4989932;28;20065;-77
2022/04/10 01:11:37;;;;;;;10.85;7.20;;;2.80;99.90;;;;;;4988901;28;20042;-76
2022/04/10 01:14:05;;;;;;;9.13;7.50;;;2.80;99.90;;;;;;4957660;28;20054;-77
2022/04/10 01:16:37;;;;;;;10.35;8.48;;;2.90;99.90;;;;;;4972561;28;20050;-76
2022/04/10 01:19:06;;;;;;;11.57;8.10;;;2.90;99.90;;;;;;4990361;28;20074;-76
2022/04/10 01:21:43;;;;;;;13.85;9.38;;;2.90;99.90;;;;;;4970441;28;20059;-76
2022/04/10 01:24:13;;;;;;;13.15;9.95;;;2.90;99.90;;;;;;4974532;28;20082;-76
2022/04/10 01:26:42;;;;;;;12.52;8.88;;;2.90;99.90;;;;;;4957811;28;20054;-76
2022/04/10 01:29:13;;;;;;;13.88;9.32;;;2.80;99.90;;;;;;4983037;28;20052;-76
2022/04/10 01:31:44;;;;;;;10.82;8.68;;;2.80;99.90;;;;;;4994487;28;20062;-76
2022/04/10 01:34:13;;;;;;;11.70;9.35;;;2.70;99.90;;;;;;4993799;28;20081;-76
2022/04/10 01:36:43;;;;;;;14.05;9.55;;;2.70;99.90;;;;;;4973397;28;20470;-76
2022/04/10 01:39:15;;;;;;;15.18;11.30;;;2.60;99.90;;;;;;4991717;28;20057;-76
2022/04/10 01:41:44;;;;;;;21.80;12.52;;;2.60;99.90;;;;;;4975586;28;20062;-76
2022/04/10 01:44:12;;;;;;;14.88;10.98;;;2.60;99.90;;;;;;4994174;28;20523;-76
2022/04/10 01:46:39;;;;;;;14.65;10.70;;;2.60;99.90;;;;;;4991963;28;20069;-76
2022/04/10 01:49:08;;;;;;;14.68;11.45;;;2.60;99.90;;;;;;4960710;28;20510;-76
2022/04/10 01:51:36;;;;;;;15.60;11.32;;;2.70;99.90;;;;;;4976934;28;20055;-76
2022/04/10 01:54:04;;;;;;;13.77;10.70;;;2.60;99.90;;;;;;4994158;28;20485;-76
2022/04/10 01:56:32;;;;;;;14.23;10.85;;;2.70;99.90;;;;;;4990327;28;20056;-75
2022/04/10 01:59:02;;;;;;;9.93;8.55;;;2.60;99.90;;;;;;4977179;28;20050;-76
2022/04/10 02:01:31;;;;;;;12.20;8.95;;;2.60;99.90;;;;;;4976196;28;20129;-76
2022/04/10 02:03:58;;;;;;;14.13;8.50;;;2.60;99.90;;;;;;4993746;28;20088;-76
2022/04/10 02:06:26;;;;;;;13.55;8.98;;;2.60;99.90;;;;;;4991895;28;20050;-75
2022/04/10 02:08:54;;;;;;;14.00;9.73;;;2.60;99.90;;;;;;4960603;28;20052;-75
2022/04/10 02:11:23;;;;;;;13.65;8.65;;;2.60;99.90;;;;;;4976309;28;20498;-76
2022/04/10 02:13:57;;;;;;;11.73;8.93;;;2.60;99.90;;;;;;4991960;28;20390;-76
2022/04/10 02:16:25;;;;;;;12.35;8.27;;;2.60;99.90;;;;;;4991650;28;20089;-76
2022/04/10 02:18:53;;;;;;;12.20;8.32;;;2.60;99.90;;;;;;4976661;28;20489;-76
2022/04/10 02:21:21;;;;;;;12.25;9.00;;;2.60;99.90;;;;;;4976067;28;20054;-75
2022/04/10 02:23:48;;;;;;;9.23;7.45;;;2.60;99.90;;;;;;4974812;28;20537;-76
2022/04/10 02:26:15;;;;;;;10.60;8.48;;;2.60;99.90;;;;;;4993156;28;20050;-76
2022/04/10 02:28:43;;;;;;;11.45;8.95;;;2.50;99.90;;;;;;4975100;28;20070;-76
2022/04/10 02:31:12;;;;;;;9.65;7.43;;;2.50;99.90;;;;;;4986574;28;20046;-76
2022/04/10 02:33:40;;;;;;;9.13;6.97;;;2.60;99.90;;;;;;4991688;28;20058;-76
2022/04/10 02:36:08;;;;;;;7.78;6.93;;;2.60;99.90;;;;;;4972520;28;20139;-76
2022/04/10 02:38:38;;;;;;;8.10;6.10;;;2.60;99.90;;;;;;4972836;28;20085;-77
2022/04/10 02:41:06;;;;;;;10.60;7.20;;;2.60;99.90;;;;;;4961125;28;20048;-77
2022/04/10 02:43:34;;;;;;;9.05;6.22;;;2.60;99.90;;;;;;4975876;28;20093;-77
2022/04/10 02:46:05;;;;;;;8.13;6.45;;;2.70;99.90;;;;;;4975739;28;20038;-77
2022/04/10 02:48:37;;;;;;;8.15;6.55;;;2.70;99.90;;;;;;4992237;28;20506;-77
2022/04/10 02:51:08;;;;;;;8.32;6.53;;;2.70;99.90;;;;;;4973812;28;20042;-77
2022/04/10 02:53:36;;;;;;;9.93;6.30;;;2.80;99.90;;;;;;4975903;28;20077;-78
2022/04/10 02:56:04;;;;;;;5.90;5.32;;;2.80;99.90;;;;;;4993109;28;20046;-77
2022/04/10 02:58:50;;;;;;;6.28;5.68;;;2.70;99.90;;;;;;4991243;28;20185;-76
2022/04/10 03:01:37;;;;;;;6.40;5.80;;;2.70;99.90;;;;;;4976837;28;20061;-77
2022/04/10 03:04:24;;;;;;;7.53;5.72;;;2.80;99.90;;;;;;4993290;28;20056;-77
2022/04/10 03:07:09;;;;;;;7.22;5.07;;;2.80;99.90;;;;;;4974695;28;20057;-77
2022/04/10 03:09:56;;;;;;;6.22;5.53;;;2.80;99.90;;;;;;4989007;28;20056;-77
2022/04/10 03:12:42;;;;;;;6.28;5.63;;;2.80;99.90;;;;;;4991765;28;20073;-77
2022/04/10 03:15:27;;;;;;;6.95;5.20;;;2.80;99.90;;;;;;4992855;28;20539;-77
2022/04/10 03:18:13;;;;;;;5.55;5.05;;;2.90;99.90;;;;;;4983381;28;20065;-77
2022/04/10 03:21:01;;;;;;;6.85;5.70;;;2.90;99.90;;;;;;4978059;28;20140;-78
2022/04/10 03:23:48;;;;;;;6.55;4.75;;;2.90;99.90;;;;;;4978423;28;20058;-77
2022/04/10 03:26:35;;;;;;;5.75;5.00;;;3.00;99.90;;;;;;4976783;28;20064;-77
2022/04/10 03:29:22;;;;;;;5.05;4.38;;;3.00;99.90;;;;;;4991874;28;20596;-76
2022/04/10 03:32:09;;;;;;;5.13;3.58;;;3.10;99.90;;;;;;4977596;28;20415;-77
2022/04/10 03:34:56;;;;;;;6.63;3.50;;;3.00;99.90;;;;;;4977301;28;20069;-77
2022/04/10 03:37:44;;;;;;;8.23;3.47;;;3.00;99.90;;;;;;4970781;28;20125;-77
2022/04/10 03:40:31;;;;;;;4.88;3.38;;;2.90;99.90;;;;;;4973191;28;20066;-77
2022/04/10 03:43:16;;;;;;;4.45;2.67;;;2.90;99.90;;;;;;4989852;28;20065;-78
2022/04/10 03:46:03;;;;;;;3.13;2.58;;;2.80;99.90;;;;;;4991674;28;20146;-77
2022/04/10 03:48:50;;;;;;;3.30;2.85;;;2.80;99.90;;;;;;4977255;28;20061;-77
2022/04/10 03:51:37;;;;;;;4.35;2.67;;;2.80;99.90;;;;;;4974162;28;20049;-77
2022/04/10 03:54:26;;;;;;;2.97;2.58;;;2.80;99.90;;;;;;4990163;28;20058;-76
2022/04/10 03:57:16;;;;;;;6.40;2.78;;;2.80;99.90;;;;;;4990987;28;20053;-76
2022/04/10 04:00:02;;;;;;;3.28;2.70;;;2.80;99.90;;;;;;4991367;28;20062;-78
2022/04/10 04:03:01;;;;;;;3.13;2.20;;;2.80;99.90;;;;;;4990319;28;20143;-77
2022/04/10 04:05:51;;;;;;;2.90;2.63;;;2.80;99.90;;;;;;4989998;28;20673;-78
2022/04/10 04:08:40;;;;;;;3.80;2.78;;;2.80;99.90;;;;;;4976568;28;20061;-77
2022/04/10 04:11:27;;;;;;;3.25;2.28;;;2.80;99.90;;;;;;4970188;28;20057;-77
2022/04/10 04:14:13;;;;;;;5.82;2.25;;;2.80;99.90;;;;;;4974818;28;20069;-78
2022/04/10 04:17:00;;;;;;;5.07;2.72;;;2.80;99.90;;;;;;4976617;28;20065;-77
2022/04/10 04:19:49;;;;;;;4.90;2.72;;;2.80;99.90;;;;;;4976705;28;20061;-76
2022/04/10 04:22:36;;;;;;;3.50;2.35;;;2.90;99.90;;;;;;4973336;28;20061;-77
2022/04/10 04:25:22;;;;;;;3.70;2.53;;;2.90;99.90;;;;;;5009373;28;20060;-78
2022/04/10 04:28:13;;;;;;;6.82;2.72;;;3.00;99.90;;;;;;4979802;28;20084;-80
2022/04/10 04:30:59;;;;;;;6.88;3.05;;;3.00;99.90;;;;;;4983123;28;20058;-81
2022/04/10 04:33:45;;;;;;;6.65;3.00;;;3.10;99.90;;;;;;4985252;28;20057;-80
2022/04/10 04:36:32;;;;;;;5.40;2.58;;;3.30;99.90;;;;;;4980306;28;20077;-81
2022/04/10 04:39:18;;;;;;;4.22;2.42;;;3.40;99.90;;;;;;4989648;28;20422;-81
2022/04/10 04:42:05;;;;;;;4.40;2.42;;;3.50;99.90;;;;;;4990423;28;20061;-81
2022/04/10 04:44:53;;;;;;;3.38;2.65;;;3.50;99.90;;;;;;4976561;28;20060;-81
2022/04/10 04:47:38;;;;;;;8.95;2.75;;;3.50;99.90;;;;;;4958779;28;20065;-82
2022/04/10 04:50:26;;;;;;;3.97;2.50;;;3.50;99.90;;;;;;4964817;28;20073;-81
2022/04/10 04:53:15;;;;;;;5.03;2.92;;;3.60;99.90;;;;;;4957761;28;20089;-82
2022/04/10 04:56:01;;;;;;;8.13;2.75;;;3.70;99.90;;;;;;4969985;28;20062;-84
2022/04/10 04:58:53;;;;;;;4.68;3.03;;;3.60;99.90;;;;;;4970966;28;20061;-81
2022/04/10 05:01:42;;;;;;;44.83;25.25;;;3.70;99.90;;;;;;4956927;28;20061;-80
2022/04/10 05:04:28;;;;;;;3.80;3.08;;;3.70;99.90;;;;;;4970646;28;20074;-80
2022/04/10 05:07:15;;;;;;;5.10;3.22;;;3.70;99.90;;;;;;4977001;28;20142;-81
2022/04/10 05:10:01;;;;;;;4.85;2.80;;;3.70;99.90;;;;;;4957268;28;20422;-81
2022/04/10 05:12:49;;;;;;;4.03;2.92;;;3.70;99.90;;;;;;4970695;28;20521;-81
2022/04/10 05:15:38;;;;;;;3.55;2.47;;;3.80;99.90;;;;;;4965164;28;20422;-80
2022/04/10 05:18:26;;;;;;;7.03;2.95;;;3.90;99.90;;;;;;4991308;28;20560;-82
2022/04/10 05:21:13;;;;;;;9.00;2.97;;;3.90;99.90;;;;;;4975649;28;20200;-77
2022/04/10 05:23:59;;;;;;;3.88;2.45;;;3.90;99.90;;;;;;4974126;28;20052;-78
2022/04/10 05:26:48;;;;;;;4.53;3.20;;;3.90;99.90;;;;;;4993335;28;20061;-77
2022/04/10 05:29:35;;;;;;;5.53;2.60;;;3.80;99.90;;;;;;4988944;28;20107;-78
2022/04/10 05:32:21;;;;;;;5.32;2.50;;;3.80;99.90;;;;;;4976586;28;20542;-77
2022/04/10 05:35:09;;;;;;;7.22;2.47;;;3.90;99.90;;;;;;4957135;28;20489;-78
2022/04/10 05:37:56;;;;;;;7.30;2.10;;;4.00;99.90;;;;;;4957640;28;20058;-76
2022/04/10 05:40:42;;;;;;;3.85;2.28;;;4.10;99.90;;;;;;4970867;28;20061;-77
2022/04/10 05:43:31;;;;;;;7.10;3.10;;;4.20;99.90;;;;;;4995489;28;20529;-76
2022/04/10 05:46:18;;;;;;;6.28;2.70;;;4.20;99.90;;;;;;4998336;28;20555;-78
2022/04/10 05:49:09;;;;;;;6.10;2.28;;;4.40;99.90;;;;;;4990514;28;20274;-79
2022/04/10 05:51:57;;;;;;;7.75;3.00;;;5.00;99.90;;;;;;4968786;28;20065;-78
2022/04/10 05:54:44;;;;;;;3.85;2.70;;;5.40;99.90;;;;;;4995046;28;20061;-78
2022/04/10 05:57:30;;;;;;;4.95;2.63;;;5.60;99.90;;;;;;4989924;28;20169;-78
2022/04/10 06:00:38;;;;;;;6.00;2.47;;;5.80;99.90;;;;;;4975332;28;20072;-82
2022/04/10 06:03:35;;;;;;;5.57;2.40;;;6.00;99.90;;;;;;4975880;28;20421;-84
2022/04/10 06:06:24;;;;;;;7.93;3.08;;;6.20;99.90;;;;;;4990059;28;20077;-83
2022/04/10 06:09:20;;;;;;;9.73;2.72;;;6.10;99.90;;;;;;4980061;28;20072;-85
2022/04/10 06:12:08;;;;;;;7.75;2.30;;;5.80;99.90;;;;;;4980309;28;20527;-86
2022/04/10 06:15:01;;;;;;;9.10;2.45;;;5.50;99.90;;;;;;4993815;28;20050;-83
2022/04/10 06:17:31;;;;;;;4.72;2.20;;;5.30;99.90;;;;;;4977565;28;20088;-82
2022/04/10 06:20:01;;;;;;;5.05;2.03;;;5.20;99.90;;;;;;4972686;28;20054;-82
2022/04/10 06:22:32;;;;;;;5.47;3.28;;;5.00;99.90;;;;;;4961200;28;20105;-83
2022/04/10 06:25:03;;;;;;;8.32;2.20;;;5.00;99.90;;;;;;4992359;28;20545;-83
2022/04/10 06:27:31;;;;;;;5.45;2.42;;;4.90;99.90;;;;;;4975409;28;20064;-83
2022/04/10 06:30:06;;;;;;;9.32;2.63;;;4.90;99.90;;;;;;4992036;28;20046;-85
2022/04/10 06:32:48;;;;;;;5.22;2.50;;;4.80;99.90;;;;;;4975932;28;20050;-82
2022/04/10 06:35:22;;;;;;;7.35;3.03;;;4.70;99.90;;;;;;4960451;28;20058;-81
2022/04/10 06:37:53;;;;;;;13.82;3.58;;;4.70;99.90;;;;;;4975091;28;20058;-80
2022/04/10 06:40:22;;;;;;;5.70;2.30;;;4.70;99.90;;;;;;4976075;28;20085;-80
2022/04/10 06:42:53;;;;;;;9.43;3.53;;;4.70;99.90;;;;;;4976042;28;20050;-85
2022/04/10 06:45:59;;;;;;;7.70;3.35;;;4.70;99.90;;;;;;4979058;28;20042;-82
2022/04/10 06:48:35;;;;;;;11.57;3.38;;;4.60;99.90;;;;;;4976034;28;20058;-81
2022/04/10 06:51:08;;;;;;;12.70;4.27;;;4.70;99.90;;;;;;4976386;28;20058;-86
2022/04/10 06:53:38;;;;;;;5.88;2.30;;;4.70;99.90;;;;;;4992686;28;20735;-77
2022/04/10 06:56:09;;;;;;;6.88;2.33;;;4.90;99.90;;;;;;4994077;28;20431;-79
2022/04/10 06:58:39;;;;;;;8.48;2.30;;;5.00;99.90;;;;;;4986051;28;20162;-78
2022/04/10 07:01:07;;;;;;;8.05;2.50;;;5.10;99.90;;;;;;4972984;28;20056;-81
2022/04/10 07:03:35;;;;;;;7.07;2.50;;;5.40;99.90;;;;;;4973246;28;20720;-81
2022/04/10 07:06:06;;;;;;;8.88;3.47;;;5.50;99.90;;;;;;4971533;28;20058;-79
2022/04/10 07:08:37;;;;;;;7.78;2.35;;;5.60;99.90;;;;;;4956185;28;20100;-80
2022/04/10 07:11:08;;;;;;;7.18;2.78;;;5.70;99.90;;;;;;4991131;28;20097;-82
2022/04/10 07:13:36;;;;;;;5.78;2.90;;;5.80;99.90;;;;;;4979133;28;20138;-79
2022/04/10 07:16:05;;;;;;;6.05;1.80;;;5.70;99.90;;;;;;4967606;28;20061;-82
2022/04/10 07:18:33;;;;;;;8.32;2.60;;;5.60;99.90;;;;;;4984082;28;20054;-80
2022/04/10 07:21:05;;;;;;;6.13;2.20;;;5.50;99.90;;;;;;4985342;28;20585;-78
2022/04/10 07:23:44;;;;;;;7.88;2.30;;;5.30;99.90;;;;;;4968828;28;20054;-77
2022/04/10 07:26:19;;;;;;;8.75;2.10;;;5.30;99.90;;;;;;4970071;28;20553;-80
2022/04/10 07:28:52;;;;;;;9.18;2.25;;;5.40;99.90;;;;;;4986065;28;20125;-75
2022/04/10 07:31:21;;;;;;;7.47;2.55;;;5.40;99.90;;;;;;4991625;28;20050;-78
2022/04/10 07:33:49;;;;;;;6.28;2.17;;;5.40;99.90;;;;;;4958553;28;20038;-77
2022/04/10 07:36:37;;;;;;;13.27;3.35;;;5.40;99.90;;;;;;4954606;28;20053;-76
2022/04/10 07:39:05;;;;;;;4.25;2.22;;;5.40;99.90;;;;;;4971262;28;20042;-77
2022/04/10 07:41:40;;;;;;;11.27;2.80;;;5.30;99.90;;;;;;4977853;28;20110;-79
2022/04/10 07:44:18;;;;;;;11.80;3.05;;;5.30;99.90;;;;;;4962483;28;20034;-79
2022/04/10 07:49:31;;;;;;;17.63;3.65;;;5.20;99.90;;;;;;4976416;28;20046;-77
2022/04/10 07:52:06;;;;;;;11.27;2.92;;;5.30;99.90;;;;;;4985928;28;20043;-79
2022/04/10 07:54:53;;;;;;;11.90;3.95;;;5.40;99.90;;;;;;4991005;28;20069;-78
2022/04/10 07:57:23;;;;;;;17.05;3.05;;;5.60;99.90;;;;;;4969308;28;20050;-74
2022/04/10 07:59:51;;;;;;;10.48;3.72;;;5.60;99.90;;;;;;4942168;28;20051;-76
2022/04/10 08:02:39;;;;;;;10.68;4.00;;;5.40;99.90;;;;;;4990734;28;20062;-77
2022/04/10 08:05:15;;;;;;;9.25;4.35;;;5.40;99.90;;;;;;4962452;28;20062;-76
2022/04/10 08:08:00;;;;;;;9.60;3.55;;;5.30;99.90;;;;;;4970921;28;20405;-76
2022/04/10 08:10:28;;;;;;;6.13;2.42;;;5.30;99.90;;;;;;4991103;28;20050;-76
2022/04/10 08:12:58;;;;;;;5.93;2.60;;;5.20;99.90;;;;;;4963672;28;20576;-78
2022/04/10 08:15:26;;;;;;;5.78;2.95;;;5.20;99.90;;;;;;4966233;28;20049;-76
2022/04/10 08:17:54;;;;;;;3.63;1.55;;;5.30;99.90;;;;;;4979719;28;20061;-78
2022/04/10 08:20:22;;;;;;;6.47;1.23;;;5.40;99.90;;;;;;4982991;28;20054;-79
2022/04/10 08:22:53;;;;;;;5.03;1.50;;;5.40;99.90;;;;;;4982736;28;20060;-76
2022/04/10 08:25:23;;;;;;;3.30;1.20;;;5.50;99.90;;;;;;4981829;28;20164;-79
2022/04/10 08:27:51;;;;;;;4.10;1.45;;;5.40;99.90;;;;;;4987102;28;20060;-82
2022/04/10 08:30:20;;;;;;;7.15;2.10;;;5.30;99.90;;;;;;4985038;28;20042;-82
2022/04/10 08:32:48;;;;;;;10.38;2.53;;;5.20;99.90;;;;;;4981340;28;20403;-83
2022/04/10 08:35:16;;;;;;;9.82;2.30;;;5.20;99.90;;;;;;4982850;28;20065;-78
2022/04/10 08:37:44;;;;;;;4.68;1.42;;;5.30;99.90;;;;;;4981001;28;20038;-77
2022/04/10 08:40:12;;;;;;;3.45;1.73;;;5.50;99.90;;;;;;4961751;28;20069;-81
2022/04/10 08:42:40;;;;;;;6.80;1.73;;;5.50;99.90;;;;;;4978476;28;20055;-77
2022/04/10 08:45:10;;;;;;;11.98;2.33;;;5.50;99.90;;;;;;4985078;28;20048;-81
2022/04/10 08:47:39;;;;;;;9.52;1.77;;;5.60;99.90;;;;;;4986342;28;20054;-79
2022/04/10 08:50:09;;;;;;;5.20;1.20;;;5.70;99.90;;;;;;4986497;28;20454;-84
2022/04/10 08:52:39;;;;;;;8.35;1.88;;;5.70;99.90;;;;;;4996737;28;20050;-82
2022/04/10 08:55:07;;;;;;;8.82;1.60;;;5.70;99.90;;;;;;4972885;28;20069;-77
2022/04/10 08:57:37;;;;;;;7.07;2.05;;;5.80;99.90;;;;;;4988452;28;20442;-76
2022/04/10 09:00:05;;;;;;;6.20;1.85;;;5.90;99.90;;;;;;4995182;28;20098;-77
2022/04/10 09:02:33;;;;;;;11.45;2.10;;;6.20;99.90;;;;;;4992197;28;20061;-77
2022/04/10 09:05:02;;;;;;;6.68;2.00;;;6.60;99.90;;;;;;4995705;28;20050;-77
2022/04/10 09:07:30;;;;;;;4.50;1.75;;;7.00;99.90;;;;;;4976986;28;20466;-75
2022/04/10 09:09:59;;;;;;;8.07;1.70;;;7.30;99.90;;;;;;4988557;28;20142;-77
2022/04/10 09:12:27;;;;;;;4.75;1.33;;;7.30;99.90;;;;;;4971184;28;20046;-76
2022/04/10 09:15:04;;;;;;;13.35;2.10;;;7.20;99.90;;;;;;4990583;28;20101;-74
2022/04/10 09:17:31;;;;;;;8.35;1.98;;;6.90;99.90;;;;;;4989467;28;20150;-79
2022/04/10 09:20:03;;;;;;;3.47;1.63;;;6.60;99.90;;;;;;4988319;28;20511;-76
2022/04/10 09:22:37;;;;;;;4.32;1.40;;;6.40;99.90;;;;;;4986845;28;20149;-77
2022/04/10 09:25:11;;;;;;;4.13;1.73;;;6.30;99.90;;;;;;4989250;28;20042;-75
2022/04/10 09:27:41;;;;;;;2.80;1.30;;;6.20;99.90;;;;;;4990536;28;20501;-76
2022/04/10 09:30:11;;;;;;;5.07;1.15;;;6.20;99.90;;;;;;4971951;28;20050;-79
2022/04/10 09:32:44;;;;;;;4.72;1.40;;;6.40;99.90;;;;;;4971334;28;20418;-75
2022/04/10 09:35:16;;;;;;;7.32;1.60;;;6.70;99.90;;;;;;4969794;28;20058;-77
2022/04/10 09:37:46;;;;;;;5.63;1.55;;;6.70;99.90;;;;;;4979153;28;20142;-79
2022/04/10 09:40:23;;;;;;;7.55;1.70;;;6.70;99.90;;;;;;4988498;28;20571;-79
2022/04/10 09:42:51;;;;;;;7.85;2.35;;;6.60;99.90;;;;;;4972378;28;20069;-83
2022/04/10 09:45:31;;;;;;;10.63;2.58;;;6.70;99.90;;;;;;4972722;28;20073;-79
2022/04/10 09:48:18;;;;;;;8.73;1.65;;;6.90;99.90;;;;;;4990942;28;20589;-78
2022/04/10 09:50:48;;;;;;;5.93;1.30;;;6.90;99.90;;;;;;4957057;28;20061;-77
2022/04/10 09:53:16;;;;;;;3.08;1.52;;;7.00;99.90;;;;;;4975226;28;20046;-78
2022/04/10 09:55:45;;;;;;;11.05;2.33;;;7.30;99.90;;;;;;4974130;28;20137;-76
2022/04/10 09:58:13;;;;;;;3.35;1.17;;;8.10;99.90;;;;;;4988136;28;20071;-77
2022/04/10 10:00:45;;;;;;;12.95;2.15;;;9.60;99.90;;;;;;4985842;28;20050;-77
2022/04/10 10:03:14;;;;;;;7.32;2.25;;;11.30;99.90;;;;;;4989224;28;20058;-78
2022/04/10 10:05:42;;;;;;;3.50;1.60;;;11.20;96.90;;;;;;4973784;28;20053;-79
2022/04/10 10:08:12;;;;;;;9.02;2.15;;;11.10;95.40;;;;;;4989183;28;20522;-78
2022/04/10 10:10:40;;;;;;;4.85;1.60;;;11.10;97.00;;;;;;4990371;28;20082;-78
2022/04/10 10:13:08;;;;;;;6.80;2.03;;;12.10;96.50;;;;;;4990623;28;20054;-78
2022/04/10 10:15:37;;;;;;;9.05;2.78;;;12.70;87.90;;;;;;4964249;28;20054;-79
2022/04/10 10:18:07;;;;;;;11.52;2.53;;;12.60;85.30;;;;;;4977914;28;20339;-80
2022/04/10 10:20:36;;;;;;;7.65;2.15;;;12.60;88.10;;;;;;4983173;28;20046;-79
2022/04/10 10:23:08;;;;;;;7.03;1.38;;;12.70;87.70;;;;;;4981872;28;20296;-80
2022/04/10 10:25:47;;;;;;;4.82;2.20;;;12.30;85.00;;;;;;4979499;28;20051;-80
2022/04/10 10:28:56;;;;;;;9.32;2.60;;;11.50;90.90;;;;;;4958141;28;20042;-79
2022/04/10 10:31:59;;;;;;;6.70;1.63;;;10.80;95.10;;;;;;4995005;28;20082;-80
2022/04/10 10:34:30;;;;;;;5.57;1.87;;;9.50;99.90;;;;;;4982928;28;20050;-78
2022/04/10 10:37:02;;;;;;;10.38;2.67;;;8.90;99.90;;;;;;4986913;28;20054;-78
2022/04/10 10:39:32;;;;;;;6.30;2.47;;;8.50;99.90;;;;;;4979851;28;20431;-79
2022/04/10 10:42:13;;;;;;;8.68;2.03;;;8.50;99.90;;;;;;4970729;28;20046;-78
2022/04/10 10:44:48;;;;;;;4.28;1.95;;;9.00;99.90;;;;;;4971497;28;20109;-80
2022/04/10 10:47:25;;;;;;;3.85;1.23;;;10.80;99.90;;;;;;4959043;28;20046;-77
2022/04/10 10:49:55;;;;;;;7.28;2.40;;;12.30;94.30;;;;;;4971513;28;20050;-80
2022/04/10 10:52:23;;;;;;;6.90;1.70;;;12.90;91.90;;;;;;4985985;28;20046;-79
2022/04/10 10:54:56;;;;;;;10.18;3.42;;;13.30;86.60;;;;;;4989026;28;20140;-79
2022/04/10 10:57:31;;;;;;;9.07;3.47;;;13.00;84.00;;;;;;4991242;28;20057;-80
2022/04/10 11:00:12;;;;;;;4.93;2.75;;;12.80;88.20;;;;;;4975542;28;20113;-78
2022/04/10 11:02:41;;;;;;;6.32;1.65;;;12.20;90.00;;;;;;4999080;28;20064;-77
2022/04/10 11:05:28;;;;;;;8.77;2.22;;;12.70;89.80;;;;;;4995098;28;20046;-77
2022/04/10 11:07:59;;;;;;;5.22;1.98;;;12.20;90.40;;;;;;5001485;28;20057;-76
2022/04/10 11:10:29;;;;;;;15.73;4.35;;;11.60;92.50;;;;;;4982728;28;20506;-77
2022/04/10 11:13:04;;;;;;;8.18;3.92;;;10.80;97.50;;;;;;4988619;28;20050;-77
2022/04/10 11:15:34;;;;;;;6.55;2.60;;;9.90;99.90;;;;;;4989467;28;20554;-80
2022/04/10 11:18:31;;;;;;;7.40;2.83;;;9.40;99.90;;;;;;4991167;28;20054;-79
2022/04/10 11:21:06;;;;;;;8.25;1.92;;;9.20;99.90;;;;;;4990369;28;20058;-78
2022/04/10 11:23:41;;;;;;;7.85;2.20;;;9.70;99.90;;;;;;4970593;28;20058;-78
2022/04/10 11:26:15;;;;;;;8.43;2.88;;;10.60;99.90;;;;;;4992067;28;20054;-78
2022/04/10 11:29:04;;;;;;;9.30;2.00;;;11.60;99.90;;;;;;4989794;28;20145;-79
2022/04/10 11:31:36;;;;;;;8.02;2.20;;;12.00;98.00;;;;;;4971003;28;20478;-79
2022/04/10 11:34:12;;;;;;;5.53;1.80;;;11.70;98.10;;;;;;4980991;28;20043;-80
2022/04/10 11:36:54;;;;;;;7.85;1.52;;;10.90;99.90;;;;;;4971698;28;20054;-79
2022/04/10 11:39:29;;;;;;;5.25;2.10;;;10.30;99.90;;;;;;4980344;28;20051;-78
2022/04/10 11:42:02;;;;;;;10.00;1.63;;;10.40;99.90;;;;;;4978593;28;20094;-78
2022/04/10 11:44:32;;;;;;;8.93;1.92;;;10.60;99.90;;;;;;4963876;28;20057;-83
2022/04/10 11:47:01;;;;;;;8.10;1.50;;;12.00;99.70;;;;;;4981126;28;20490;-79
2022/04/10 11:49:29;;;;;;;17.02;1.92;;;13.70;90.10;;;;;;4964026;28;20058;-80
2022/04/10 11:52:00;;;;;;;6.18;1.42;;;15.60;77.00;;;;;;4993901;28;20421;-81
2022/04/10 11:54:31;;;;;;;2.63;1.55;;;16.90;67.70;;;;;;4978748;28;20054;-79
2022/04/10 11:57:01;;;;;;;6.53;1.88;;;18.00;61.90;;;;;;4961924;28;20107;-81
2022/04/10 11:59:37;;;;;;;2.58;1.67;;;18.80;57.60;;;;;;4983439;28;20521;-80
2022/04/10 12:02:05;;;;;;;7.45;1.70;;;19.00;56.90;;;;;;4989937;28;20490;-79
2022/04/10 12:04:35;;;;;;;9.18;1.25;;;19.00;56.00;;;;;;4972151;28;20146;-79
2022/04/10 12:07:17;;;;;;;3.58;1.63;;;19.00;55.30;;;;;;4990913;28;20082;-79
2022/04/10 12:09:46;;;;;;;4.63;1.60;;;18.00;55.30;;;;;;4973100;28;20062;-79
2022/04/10 12:12:13;;;;;;;7.22;2.00;;;16.80;58.50;;;;;;4988683;28;20054;-78
2022/04/10 12:14:42;;;;;;;7.25;1.73;;;15.70;60.60;;;;;;4958036;28;20050;-79
2022/04/10 12:17:14;;;;;;;4.43;1.45;;;14.80;64.10;;;;;;4988760;28;20046;-79
2022/04/10 12:19:41;;;;;;;10.63;1.77;;;14.10;66.50;;;;;;4974257;28;20058;-79
2022/04/10 12:22:10;;;;;;;5.10;1.40;;;13.40;69.20;;;;;;4971484;28;20047;-80
2022/04/10 12:24:38;;;;;;;6.53;1.02;;;13.20;72.00;;;;;;4978162;28;20061;-79
2022/04/10 12:27:08;;;;;;;4.25;1.40;;;14.40;71.00;;;;;;4968193;28;20059;-77
2022/04/10 12:29:36;;;;;;;4.65;1.35;;;16.00;64.60;;;;;;4977149;28;20178;-77
2022/04/10 12:32:09;;;;;;;3.97;1.10;;;17.30;60.60;;;;;;4971246;28;20055;-77
2022/04/10 12:34:43;;;;;;;4.50;1.40;;;18.30;57.10;;;;;;4983083;28;20042;-78
2022/04/10 12:37:12;;;;;;;14.93;2.40;;;18.80;55.50;;;;;;4989018;28;20061;-77
2022/04/10 12:39:40;;;;;;;5.30;1.55;;;19.60;54.10;;;;;;4974604;28;20047;-78
2022/04/10 12:42:09;;;;;;;3.67;1.30;;;20.20;51.70;;;;;;4971656;28;20071;-77
2022/04/10 12:44:38;;;;;;;10.60;2.47;;;20.50;50.50;;;;;;4962908;28;20574;-77
2022/04/10 12:47:08;;;;;;;6.50;1.70;;;20.40;50.60;;;;;;4968190;28;20061;-76
2022/04/10 12:49:38;;;;;;;2.95;1.30;;;20.90;49.90;;;;;;4969951;28;20047;-76
2022/04/10 12:52:09;;;;;;;8.77;1.40;;;21.40;48.60;;;;;;4957710;28;20066;-77
2022/04/10 12:54:40;;;;;;;6.13;1.23;;;21.40;47.70;;;;;;4973670;28;20077;-77
2022/04/10 12:57:10;;;;;;;9.23;1.40;;;20.30;49.10;;;;;;4986130;28;20049;-78
2022/04/10 12:59:43;;;;;;;8.02;1.70;;;18.80;51.10;;;;;;4981750;28;20131;-80
2022/04/10 13:02:22;;;;;;;8.27;1.85;;;17.80;53.70;;;;;;4979309;28;20050;-77
2022/04/10 13:05:00;;;;;;;6.00;1.60;;;18.60;53.80;;;;;;4991965;28;20056;-79
2022/04/10 13:07:29;;;;;;;6.47;1.38;;;19.60;51.00;;;;;;4980669;28;20058;-79
2022/04/10 13:10:07;;;;;;;5.35;1.92;;;17.30;52.80;;;;;;4954419;28;20057;-80
2022/04/10 13:12:37;;;;;;;4.53;1.25;;;16.80;55.70;;;;;;4967632;28;20588;-80
2022/04/10 13:15:07;;;;;;;6.38;1.67;;;17.50;54.50;;;;;;4977391;28;20046;-78
2022/04/10 13:17:38;;;;;;;4.25;1.33;;;16.50;55.10;;;;;;4983683;28;20092;-79
2022/04/10 13:20:09;;;;;;;12.13;1.98;;;15.00;58.60;;;;;;4992097;28;20422;-78
2022/04/10 13:22:38;;;;;;;10.57;1.55;;;16.40;57.70;;;;;;4975196;28;20469;-80
2022/04/10 13:25:08;;;;;;;5.00;1.40;;;17.90;55.00;;;;;;4987779;28;20392;-76
2022/04/10 13:27:38;;;;;;;5.13;1.45;;;19.30;51.60;;;;;;4970179;28;20133;-78
2022/04/10 13:30:10;;;;;;;4.03;1.35;;;19.70;50.10;;;;;;4968495;28;20142;-77
2022/04/10 13:32:38;;;;;;;4.50;1.30;;;19.70;49.70;;;;;;4973716;28;20486;-80
2022/04/10 13:35:08;;;;;;;4.53;1.50;;;19.90;49.20;;;;;;4990745;28;20058;-83